createdAt,value
2022-10-15T00:01:15.214Z,30.95
2022-10-15T00:03:44.476Z,29.85
2022-10-15T00:06:14.600Z,30.95
2022-10-15T00:08:43.106Z,27.62
2022-10-15T00:11:19.551Z,27.48
2022-10-15T00:13:48.294Z,28.12
2022-10-15T00:16:19.170Z,26.95
2022-10-15T00:18:46.993Z,24.35
2022-10-15T00:21:16.542Z,26.30
2022-10-15T00:23:44.634Z,26.73
2022-10-15T00:26:15.286Z,29.30
2022-10-15T00:28:43.582Z,28.30
2022-10-15T00:31:14.043Z,29.23
2022-10-15T00:33:41.935Z,26.90
2022-10-15T00:36:17.706Z,30.02
2022-10-15T00:38:45.645Z,26.50
2022-10-15T00:41:16.084Z,26.25
2022-10-15T00:44:23.283Z,27.15
2022-10-15T00:47:03.375Z,28.40
2022-10-15T00:49:31.120Z,24.87
2022-10-15T00:52:31.220Z,23.58
2022-10-15T00:55:35.686Z,24.08
2022-10-15T00:58:10.296Z,24.45
2022-10-15T01:00:37.653Z,22.95
2022-10-15T01:03:05.317Z,23.00
2022-10-15T01:05:33.716Z,20.62
2022-10-15T01:08:01.072Z,22.33
2022-10-15T01:10:39.482Z,22.15
2022-10-15T01:13:15.297Z,21.85
2022-10-15T01:16:04.862Z,21.10
2022-10-15T01:18:38.888Z,22.23
2022-10-15T01:21:18.565Z,22.67
2022-10-15T01:23:52.885Z,24.12
2022-10-15T01:26:42.162Z,22.00
2022-10-15T01:29:25.101Z,23.10
2022-10-15T01:32:00.996Z,20.12
2022-10-15T01:34:47.679Z,21.27
2022-10-15T01:37:22.828Z,21.95
2022-10-15T01:39:55.225Z,21.50
2022-10-15T01:42:34.720Z,22.15
2022-10-15T01:45:07.240Z,21.92
2022-10-15T01:47:46.568Z,22.87
2022-10-15T01:50:14.825Z,19.48
2022-10-15T01:52:43.815Z,20.77
2022-10-15T01:55:14.250Z,20.62
2022-10-15T01:57:44.396Z,23.27
2022-10-15T02:00:13.676Z,20.55
2022-10-15T02:02:41.713Z,19.55
2022-10-15T02:05:25.652Z,20.52
2022-10-15T02:08:02.341Z,20.40
2022-10-15T02:10:43.432Z,19.62
2022-10-15T02:13:23.428Z,18.12
2022-10-15T02:16:06.925Z,22.95
2022-10-15T02:18:58.385Z,19.45
2022-10-15T02:21:31.526Z,17.52
2022-10-15T02:24:16.887Z,21.70
2022-10-15T02:26:44.961Z,20.70
2022-10-15T02:29:18.393Z,21.30
2022-10-15T02:31:47.595Z,20.05
2022-10-15T02:34:18.835Z,18.65
2022-10-15T02:36:46.918Z,18.33
2022-10-15T02:39:17.621Z,21.42
2022-10-15T02:41:45.517Z,20.60
2022-10-15T02:44:13.415Z,18.92
2022-10-15T02:46:40.917Z,20.52
2022-10-15T02:49:10.421Z,18.25
2022-10-15T02:51:38.025Z,19.92
2022-10-15T02:54:07.110Z,20.33
2022-10-15T02:56:35.392Z,20.08
2022-10-15T02:59:05.894Z,19.50
2022-10-15T03:01:34.383Z,17.48
2022-10-15T03:04:02.903Z,20.75
2022-10-15T03:06:30.903Z,20.45
2022-10-15T03:08:58.391Z,20.10
2022-10-15T03:11:26.217Z,21.77
2022-10-15T03:13:53.874Z,18.10
2022-10-15T03:16:21.578Z,18.83
2022-10-15T03:18:48.932Z,20.80
2022-10-15T03:21:16.894Z,20.27
2022-10-15T03:23:44.312Z,20.77
2022-10-15T03:26:12.121Z,19.42
2022-10-15T03:28:40.374Z,22.85
2022-10-15T03:31:08.007Z,23.10
2022-10-15T03:33:35.371Z,20.85
2022-10-15T03:36:03.201Z,21.23
2022-10-15T03:38:30.581Z,21.85
2022-10-15T03:40:58.283Z,20.15
2022-10-15T03:43:29.165Z,21.75
2022-10-15T03:46:04.666Z,19.85
2022-10-15T03:48:33.394Z,20.23
2022-10-15T03:51:00.790Z,22.62
2022-10-15T03:53:28.225Z,22.15
2022-10-15T03:55:55.832Z,20.00
2022-10-15T03:58:23.627Z,23.85
2022-10-15T04:00:52.899Z,21.87
2022-10-15T04:03:20.541Z,23.17
2022-10-15T04:05:55.271Z,22.98
2022-10-15T04:08:25.547Z,21.23
2022-10-15T04:10:53.162Z,22.75
2022-10-15T04:13:20.759Z,20.27
2022-10-15T04:15:48.430Z,22.58
2022-10-15T04:18:15.787Z,19.65
2022-10-15T04:20:43.428Z,20.98
2022-10-15T04:23:12.373Z,23.12
2022-10-15T04:25:40.223Z,22.23
2022-10-15T04:28:07.780Z,25.17
2022-10-15T04:30:35.779Z,24.27
2022-10-15T04:33:03.785Z,20.65
2022-10-15T04:35:32.133Z,22.50
2022-10-15T04:37:59.953Z,29.55
2022-10-15T04:40:28.191Z,24.48
2022-10-15T04:42:55.536Z,23.58
2022-10-15T04:47:51.854Z,24.67
2022-10-15T04:50:19.691Z,24.27
2022-10-15T04:53:01.431Z,26.23
2022-10-15T04:55:30.152Z,26.12
2022-10-15T04:57:58.025Z,24.85
2022-10-15T05:00:29.419Z,25.30
2022-10-15T05:03:00.951Z,26.35
2022-10-15T05:05:31.478Z,22.13
2022-10-15T05:08:04.315Z,27.55
2022-10-15T05:10:32.857Z,23.05
2022-10-15T05:13:03.654Z,24.83
2022-10-15T05:15:31.358Z,21.98
2022-10-15T05:17:58.697Z,27.98
2022-10-15T05:20:29.290Z,24.40
2022-10-15T05:22:57.684Z,24.08
2022-10-15T05:25:28.851Z,26.73
2022-10-15T05:27:56.991Z,30.55
2022-10-15T05:30:24.560Z,26.42
2022-10-15T05:32:53.237Z,29.48
2022-10-15T05:35:21.555Z,29.52
2022-10-15T05:37:52.178Z,27.20
2022-10-15T05:40:21.888Z,27.75
2022-10-15T05:45:22.128Z,29.55
2022-10-15T05:47:54.428Z,28.12
2022-10-15T05:50:25.446Z,26.85
2022-10-15T05:52:54.661Z,30.02
2022-10-15T05:55:22.127Z,25.48
2022-10-15T05:57:51.943Z,26.48
2022-10-15T06:00:19.563Z,28.65
2022-10-15T06:02:50.714Z,25.88
2022-10-15T06:05:18.148Z,24.90
2022-10-15T06:07:45.480Z,27.87
2022-10-15T06:10:13.067Z,28.92
2022-10-15T06:12:40.939Z,25.67
2022-10-15T06:15:08.808Z,24.73
2022-10-15T06:17:36.374Z,26.52
2022-10-15T06:20:03.843Z,26.37
2022-10-15T06:22:31.430Z,25.25
2022-10-15T06:24:59.046Z,29.25
2022-10-15T06:27:27.281Z,27.30
2022-10-15T06:29:54.597Z,24.58
2022-10-15T06:32:22.181Z,29.45
2022-10-15T06:34:49.515Z,26.73
2022-10-15T06:37:16.852Z,28.00
2022-10-15T06:39:46.630Z,27.17
2022-10-15T06:42:14.052Z,25.80
2022-10-15T06:44:41.376Z,28.38
2022-10-15T06:47:09.547Z,24.77
2022-10-15T06:49:36.876Z,23.87
2022-10-15T06:52:04.302Z,19.65
2022-10-15T06:54:31.901Z,19.12
2022-10-15T06:56:59.233Z,20.02
2022-10-15T06:59:26.618Z,18.37
2022-10-15T07:01:54.840Z,18.75
2022-10-15T07:04:23.330Z,17.58
2022-10-15T07:06:50.659Z,18.12
2022-10-15T07:09:20.629Z,16.62
2022-10-15T07:11:50.575Z,20.10
2022-10-15T07:14:18.214Z,18.80
2022-10-15T07:16:45.541Z,21.87
2022-10-15T07:19:12.867Z,19.27
2022-10-15T07:21:40.586Z,19.37
2022-10-15T07:24:07.957Z,19.08
2022-10-15T07:26:35.378Z,17.15
2022-10-15T07:29:04.164Z,17.55
2022-10-15T07:31:31.827Z,17.20
2022-10-15T07:33:59.258Z,20.17
2022-10-15T07:36:27.162Z,20.30
2022-10-15T07:38:54.556Z,16.45
2022-10-15T07:41:21.967Z,18.02
2022-10-15T07:43:52.172Z,18.02
2022-10-15T07:46:19.521Z,16.73
2022-10-15T07:48:47.331Z,16.15
2022-10-15T07:51:15.192Z,20.27
2022-10-15T07:53:43.982Z,15.82
2022-10-15T07:56:12.110Z,17.85
2022-10-15T07:58:39.760Z,17.35
2022-10-15T08:01:08.594Z,17.05
2022-10-15T08:03:37.235Z,15.15
2022-10-15T08:06:06.434Z,17.67
2022-10-15T08:08:34.569Z,14.65
2022-10-15T08:11:10.605Z,15.50
2022-10-15T08:13:42.194Z,15.73
2022-10-15T08:16:11.498Z,15.50
2022-10-15T08:18:39.243Z,14.43
2022-10-15T08:21:07.896Z,16.70
2022-10-15T08:23:36.115Z,15.70
2022-10-15T08:26:04.352Z,14.85
2022-10-15T08:28:32.700Z,17.25
2022-10-15T08:31:04.569Z,16.33
2022-10-15T08:33:37.676Z,14.23
2022-10-15T08:36:06.437Z,14.35
2022-10-15T08:38:34.799Z,14.60
2022-10-15T08:41:02.978Z,12.85
2022-10-15T08:43:36.026Z,12.90
2022-10-15T08:46:11.809Z,17.27
2022-10-15T08:48:48.437Z,17.25
2022-10-15T08:51:20.802Z,12.98
2022-10-15T08:53:55.367Z,13.40
2022-10-15T08:56:28.059Z,13.52
2022-10-15T08:59:05.401Z,11.52
2022-10-15T09:01:39.327Z,12.90
2022-10-15T09:04:58.932Z,14.55
2022-10-15T09:07:36.862Z,13.77
2022-10-15T09:10:45.027Z,12.75
2022-10-15T09:13:33.572Z,13.15
2022-10-15T09:16:05.576Z,13.75
2022-10-15T09:18:34.413Z,15.77
2022-10-15T09:21:05.004Z,15.55
2022-10-15T09:23:33.072Z,13.35
2022-10-15T09:26:12.740Z,11.18
2022-10-15T09:29:07.865Z,12.13
2022-10-15T09:31:51.831Z,10.60
2022-10-15T09:34:31.406Z,10.95
2022-10-15T09:37:04.765Z,11.93
2022-10-15T09:40:46.459Z,11.97
2022-10-15T09:43:14.368Z,11.52
2022-10-15T09:45:42.139Z,12.82
2022-10-15T09:48:16.507Z,11.15
2022-10-15T09:53:34.786Z,10.30
2022-10-15T09:56:11.231Z,10.75
2022-10-15T09:58:47.599Z,9.48
2022-10-15T10:01:20.327Z,12.30
2022-10-15T10:03:52.983Z,12.20
2022-10-15T10:06:21.205Z,8.98
2022-10-15T10:09:11.608Z,9.07
2022-10-15T10:11:56.771Z,10.23
2022-10-15T10:14:45.377Z,11.40
2022-10-15T10:17:22.578Z,10.93
2022-10-15T10:20:08.702Z,9.45
2022-10-15T10:22:51.476Z,11.80
2022-10-15T10:25:42.575Z,13.27
2022-10-15T10:28:09.956Z,9.48
2022-10-15T10:31:00.402Z,11.57
2022-10-15T10:33:31.627Z,9.32
2022-10-15T10:35:59.651Z,8.68
2022-10-15T10:38:30.471Z,10.30
2022-10-15T10:41:05.252Z,8.80
2022-10-15T10:43:38.303Z,8.23
2022-10-15T10:46:18.099Z,8.88
2022-10-15T10:48:48.932Z,7.40
2022-10-15T10:51:25.044Z,8.68
2022-10-15T10:53:57.370Z,7.68
2022-10-15T10:56:28.974Z,7.82
2022-10-15T10:59:16.926Z,7.37
2022-10-15T11:01:45.166Z,6.72
2022-10-15T11:04:21.028Z,8.00
2022-10-15T11:07:06.911Z,8.18
2022-10-15T11:09:56.474Z,9.40
2022-10-15T11:12:45.613Z,8.90
2022-10-15T11:15:13.078Z,6.05
2022-10-15T11:17:50.272Z,8.35
2022-10-15T11:20:49.806Z,9.10
2022-10-15T11:23:48.659Z,6.50
2022-10-15T11:26:46.015Z,7.20
2022-10-15T11:29:40.831Z,5.82
2022-10-15T11:32:16.745Z,6.20
2022-10-15T11:34:58.923Z,7.20
2022-10-15T11:37:38.746Z,10.90
2022-10-15T11:40:20.384Z,6.30
2022-10-15T11:43:34.803Z,8.40
2022-10-15T11:46:12.926Z,8.05
2022-10-15T11:49:01.845Z,6.45
2022-10-15T11:51:29.040Z,6.32
2022-10-15T11:54:04.675Z,8.45
2022-10-15T11:56:46.192Z,6.28
2022-10-15T11:59:37.944Z,6.75
2022-10-15T12:02:12.113Z,6.85
2022-10-15T12:04:42.240Z,6.20
2022-10-15T12:07:17.076Z,6.55
2022-10-15T12:09:48.256Z,5.78
2022-10-15T12:12:34.156Z,6.93
2022-10-15T12:15:16.061Z,7.53
2022-10-15T12:20:24.354Z,7.97
2022-10-15T12:22:54.751Z,7.47
2022-10-15T12:25:34.333Z,7.40
2022-10-15T12:28:13.875Z,7.03
2022-10-15T12:30:43.002Z,11.80
2022-10-15T12:33:28.955Z,7.05
2022-10-15T12:35:58.796Z,5.55
2022-10-15T12:38:35.039Z,5.95
2022-10-15T12:41:07.874Z,5.78
2022-10-15T12:43:38.823Z,5.50
2022-10-15T12:46:07.640Z,5.50
2022-10-15T12:48:38.052Z,5.78
2022-10-15T12:51:23.771Z,4.05
2022-10-15T12:53:52.885Z,5.93
2022-10-15T12:56:40.422Z,4.95
2022-10-15T12:59:31.409Z,5.45
2022-10-15T13:02:02.488Z,7.13
2022-10-15T13:04:38.295Z,5.43
2022-10-15T13:07:06.507Z,5.62
2022-10-15T13:09:34.740Z,6.93
2022-10-15T13:12:03.903Z,7.10
2022-10-15T13:14:40.184Z,6.20
2022-10-15T13:17:19.695Z,6.30
2022-10-15T13:19:55.631Z,6.32
2022-10-15T13:22:28.299Z,5.55
2022-10-15T13:24:56.028Z,7.32
2022-10-15T13:27:33.649Z,5.20
2022-10-15T13:30:13.087Z,7.53
2022-10-15T13:32:46.621Z,7.62
2022-10-15T13:35:18.872Z,5.70
2022-10-15T13:37:46.948Z,4.55
2022-10-15T13:40:21.963Z,6.10
2022-10-15T13:43:02.440Z,5.93
2022-10-15T13:45:30.125Z,5.43
2022-10-15T13:47:57.830Z,7.20
2022-10-15T13:50:31.458Z,6.03
2022-10-15T13:53:14.708Z,5.78
2022-10-15T13:55:53.508Z,6.95
2022-10-15T13:58:27.620Z,6.55
2022-10-15T14:01:15.804Z,5.90
2022-10-15T14:03:47.289Z,6.28
2022-10-15T14:06:39.201Z,5.47
2022-10-15T14:09:24.231Z,5.22
2022-10-15T14:14:41.638Z,7.43
2022-10-15T14:17:14.392Z,5.82
2022-10-15T14:19:47.251Z,5.80
2022-10-15T14:22:18.850Z,5.62
2022-10-15T14:24:48.622Z,6.72
2022-10-15T14:27:18.956Z,8.85
2022-10-15T14:29:48.350Z,8.70
2022-10-15T14:32:30.643Z,6.68
2022-10-15T14:35:04.186Z,7.37
2022-10-15T14:37:36.369Z,7.95
2022-10-15T14:40:10.823Z,9.75
2022-10-15T14:42:40.567Z,11.20
2022-10-15T14:45:42.152Z,8.05
2022-10-15T14:48:15.044Z,9.23
2022-10-15T14:50:43.913Z,9.25
2022-10-15T14:53:20.421Z,7.15
2022-10-15T14:55:52.336Z,9.30
2022-10-15T14:58:21.735Z,7.90
2022-10-15T15:00:56.534Z,7.43
2022-10-15T15:03:31.607Z,9.15
2022-10-15T15:05:59.288Z,7.57
2022-10-15T15:08:26.715Z,9.55
2022-10-15T15:10:57.345Z,9.00
2022-10-15T15:13:26.886Z,8.52
2022-10-15T15:15:54.549Z,9.98
2022-10-15T15:18:22.500Z,9.02
2022-10-15T15:20:51.001Z,12.50
2022-10-15T15:23:20.861Z,9.68
2022-10-15T15:25:48.434Z,10.07
2022-10-15T15:28:20.508Z,11.50
2022-10-15T15:30:55.370Z,11.38
2022-10-15T15:33:22.955Z,14.45
2022-10-15T15:35:52.779Z,9.40
2022-10-15T15:38:21.779Z,9.02
2022-10-15T15:40:49.904Z,10.30
2022-10-15T15:43:18.732Z,9.75
2022-10-15T15:45:46.592Z,11.57
2022-10-15T15:48:14.300Z,9.18
2022-10-15T15:50:41.829Z,8.73
2022-10-15T15:53:09.420Z,9.05
2022-10-15T15:55:37.409Z,8.32
2022-10-15T15:58:04.761Z,8.85
2022-10-15T16:00:32.106Z,13.52
2022-10-15T16:02:59.732Z,11.88
2022-10-15T16:05:27.044Z,9.07
2022-10-15T16:07:54.354Z,7.43
2022-10-15T16:10:21.958Z,7.07
2022-10-15T16:12:49.309Z,8.60
2022-10-15T16:15:16.647Z,8.45
2022-10-15T16:17:44.242Z,10.25
2022-10-15T16:20:11.919Z,9.27
2022-10-15T16:22:39.407Z,8.63
2022-10-15T16:25:07.700Z,9.63
2022-10-15T16:27:35.111Z,10.48
2022-10-15T16:30:03.324Z,9.93
2022-10-15T16:32:31.093Z,7.55
2022-10-15T16:34:59.046Z,7.03
2022-10-15T16:37:26.691Z,7.62
2022-10-15T16:39:54.546Z,8.75
2022-10-15T16:42:21.892Z,8.00
2022-10-15T16:44:51.015Z,8.55
2022-10-15T16:47:18.959Z,9.93
2022-10-15T16:49:46.288Z,13.52
2022-10-15T16:52:14.928Z,9.65
2022-10-15T16:54:42.533Z,11.15
2022-10-15T16:57:09.852Z,13.05
2022-10-15T16:59:37.175Z,12.05
2022-10-15T17:02:05.053Z,14.60
2022-10-15T17:04:32.735Z,10.25
2022-10-15T17:07:00.382Z,10.18
2022-10-15T17:09:28.136Z,11.32
2022-10-15T17:11:55.673Z,12.18
2022-10-15T17:14:23.038Z,12.15
2022-10-15T17:16:52.592Z,11.07
2022-10-15T17:19:23.545Z,12.55
2022-10-15T17:21:52.305Z,11.25
2022-10-15T17:24:19.687Z,10.40
2022-10-15T17:26:48.088Z,9.73
2022-10-15T17:29:20.183Z,13.77
2022-10-15T17:31:48.586Z,12.73
2022-10-15T17:34:16.815Z,11.45
2022-10-15T17:36:47.271Z,9.55
2022-10-15T17:39:17.326Z,10.45
2022-10-15T17:41:45.065Z,13.02
2022-10-15T17:44:12.892Z,10.90
2022-10-15T17:46:41.262Z,13.18
2022-10-15T17:49:11.976Z,12.90
2022-10-15T17:51:39.850Z,12.43
2022-10-15T17:54:07.593Z,12.37
2022-10-15T17:56:36.610Z,13.80
2022-10-15T17:59:06.702Z,12.68
2022-10-15T18:01:57.323Z,14.35
2022-10-15T18:04:24.704Z,12.13
2022-10-15T18:06:52.219Z,10.77
2022-10-15T18:09:25.472Z,12.10
2022-10-15T18:11:56.773Z,10.77
2022-10-15T18:14:29.342Z,11.82
2022-10-15T18:16:57.743Z,11.52
2022-10-15T18:19:27.005Z,12.15
2022-10-15T18:21:55.764Z,13.90
2022-10-15T18:24:24.208Z,10.27
2022-10-15T18:26:52.623Z,11.60
2022-10-15T18:29:20.815Z,13.40
2022-10-15T18:31:52.182Z,11.43
2022-10-15T18:34:22.851Z,18.93
2022-10-15T18:36:50.963Z,18.12
2022-10-15T18:39:18.559Z,14.10
2022-10-15T18:41:45.973Z,14.60
2022-10-15T18:44:16.632Z,12.48
2022-10-15T18:46:45.897Z,12.43
2022-10-15T18:49:16.181Z,11.80
2022-10-15T18:51:52.083Z,13.55
2022-10-15T18:54:20.804Z,10.68
2022-10-15T18:56:48.526Z,14.07
2022-10-15T18:59:19.939Z,12.52
2022-10-15T19:01:49.561Z,11.25
2022-10-15T19:04:20.888Z,11.88
2022-10-15T19:06:51.175Z,13.25
2022-10-15T19:09:22.482Z,13.10
2022-10-15T19:11:51.976Z,15.23
2022-10-15T19:14:19.487Z,15.43
2022-10-15T19:16:47.562Z,15.88
2022-10-15T19:19:18.005Z,11.90
2022-10-15T19:21:46.679Z,13.68
2022-10-15T19:24:15.021Z,13.40
2022-10-15T19:26:43.067Z,12.05
2022-10-15T19:29:10.595Z,13.68
2022-10-15T19:31:40.435Z,10.82
2022-10-15T19:34:08.309Z,14.80
2022-10-15T19:36:38.979Z,12.73
2022-10-15T19:39:09.016Z,12.27
2022-10-15T19:41:38.082Z,13.23
2022-10-15T19:44:07.860Z,11.60
2022-10-15T19:46:36.553Z,14.15
2022-10-15T19:49:06.009Z,10.70
2022-10-15T19:51:34.128Z,12.48
2022-10-15T19:54:02.029Z,11.50
2022-10-15T19:56:30.841Z,9.50
2022-10-15T19:59:00.303Z,11.27
2022-10-15T20:01:28.391Z,11.05
2022-10-15T20:04:03.201Z,10.32
2022-10-15T20:06:35.029Z,10.68
2022-10-15T20:09:03.985Z,10.10
2022-10-15T20:11:31.427Z,9.38
2022-10-15T20:13:59.676Z,11.88
2022-10-15T20:16:28.775Z,9.88
2022-10-15T20:19:01.677Z,11.15
2022-10-15T20:21:29.363Z,12.35
2022-10-15T20:23:56.684Z,10.73
2022-10-15T20:26:24.087Z,12.13
2022-10-15T20:28:52.054Z,11.45
2022-10-15T20:31:21.461Z,10.35
2022-10-15T20:33:49.314Z,12.10
2022-10-15T20:36:22.525Z,10.68
2022-10-15T20:38:51.761Z,11.73
2022-10-15T20:41:19.967Z,10.65
2022-10-15T20:43:54.003Z,9.52
2022-10-15T20:46:34.598Z,7.00
2022-10-15T20:49:08.802Z,9.30
2022-10-15T20:51:39.985Z,9.80
2022-10-15T20:54:07.673Z,9.38
2022-10-15T20:56:35.466Z,10.95
2022-10-15T20:59:05.039Z,9.50
2022-10-15T21:01:33.813Z,7.75
2022-10-15T21:04:01.489Z,10.27
2022-10-15T21:06:29.320Z,8.10
2022-10-15T21:08:57.151Z,7.95
2022-10-15T21:11:24.558Z,7.72
2022-10-15T21:13:52.217Z,10.02
2022-10-15T21:16:21.416Z,6.97
2022-10-15T21:18:50.674Z,7.35
2022-10-15T21:21:18.251Z,9.82
2022-10-15T21:23:46.092Z,8.20
2022-10-15T21:26:16.172Z,8.25
2022-10-15T21:28:44.083Z,9.73
2022-10-15T21:31:13.494Z,10.55
2022-10-15T21:33:41.095Z,7.80
2022-10-15T21:36:22.036Z,7.53
2022-10-15T21:38:56.040Z,9.63
2022-10-15T21:41:24.835Z,7.40
2022-10-15T21:43:52.613Z,9.75
2022-10-15T21:46:20.014Z,9.10
2022-10-15T21:48:47.642Z,12.43
2022-10-15T21:51:17.683Z,8.38
2022-10-15T21:53:45.571Z,8.57
2022-10-15T21:56:13.864Z,8.82
2022-10-15T21:58:41.470Z,7.82
2022-10-15T22:01:09.251Z,8.40
2022-10-15T22:03:37.019Z,9.68
2022-10-15T22:06:05.693Z,15.77
2022-10-15T22:08:33.303Z,9.77
2022-10-15T22:11:31.134Z,9.15
2022-10-15T22:14:00.770Z,8.38
2022-10-15T22:16:28.726Z,7.45
2022-10-15T22:18:56.703Z,7.53
2022-10-15T22:21:26.640Z,8.13
2022-10-15T22:23:59.580Z,7.10
2022-10-15T22:26:29.734Z,7.25
2022-10-15T22:28:59.899Z,7.80
2022-10-15T22:31:27.814Z,7.37
2022-10-15T22:33:55.687Z,8.10
2022-10-15T22:36:25.865Z,8.27
2022-10-15T22:39:01.595Z,9.68
2022-10-15T22:41:31.415Z,7.37
2022-10-15T22:43:58.974Z,8.63
2022-10-15T22:46:27.668Z,8.38
2022-10-15T22:48:55.296Z,8.05
2022-10-15T22:51:22.652Z,7.80
2022-10-15T22:53:50.002Z,6.60
2022-10-15T22:56:18.701Z,7.65
2022-10-15T22:58:46.551Z,8.32
2022-10-15T23:01:25.205Z,11.10
2022-10-15T23:03:55.315Z,7.57
2022-10-15T23:06:23.361Z,8.95
2022-10-15T23:08:51.653Z,9.73
2022-10-15T23:11:20.398Z,7.87
2022-10-15T23:13:48.448Z,8.30
2022-10-15T23:16:16.940Z,9.88
2022-10-15T23:18:46.329Z,9.60
2022-10-15T23:21:16.120Z,8.65
2022-10-15T23:23:44.648Z,8.52
2022-10-15T23:26:14.513Z,8.13
2022-10-15T23:28:43.522Z,9.88
2022-10-15T23:31:21.624Z,8.43
2022-10-15T23:33:49.202Z,8.85
2022-10-15T23:36:18.207Z,7.20
2022-10-15T23:38:48.781Z,7.60
2022-10-15T23:41:16.400Z,8.18
2022-10-15T23:43:43.725Z,8.82
2022-10-15T23:46:11.488Z,8.90
2022-10-15T23:48:39.131Z,8.02
2022-10-15T23:51:24.660Z,8.13
2022-10-15T23:53:53.533Z,9.23
2022-10-15T23:56:21.541Z,7.70
2022-10-15T23:58:49.941Z,6.97
